Bitahochee, Arizona
Current Conditions -  °F | °C
As of 5:56 AM on Friday 28 Nov 2014 (Local Time) from KINW Reporting Station
Clear Clear  
Wind Chill: 16°   Ceiling: Unl
Heat Index: 22°   Visibility: 10mi
Dew Point: 11°   Wind: 5mph
Humidity: 63%   Direction: 170°S
Pressure: 30.25"   Gusts: NA
Location:  35.4077°N, 110.085°W
Report Text: KINW 281256Z AUTO 17004KT 10SM CLR M06/M12 A3025 RMK AO2 SLP256 T10561117
Loading
Personal Weather Stations






























Interactive Weather Map New forecast layout! Learn more

10-Day Weather Forecast

Advertisements
Track Severe Weather on mobile